Create Custom Reports and Graphics: Custom Report

North Region Latest Observations

Map

10 Minute Data

Winnemucca/Elko Latest Observations

Map

10 Minute Data

South Region Latest Observations

Map

10 Minute Data

Latest Observation

67 Stations

10 Minute Data
as of 5/8/26 9:50 AM PDT
Station Date Time Temp (°F) RH (%) Dew Pt (°F) Wind Spd (mph) Wind Dir (°) Wind Gust (mph) Wind Gst Dir (°) Latest Rain (In) Soil Moist (%) Soil Temp (°F) Daily Rain (In) Daily Min Temp (°F) Daily Max Temp (°F) Daily Max Wind (mph)
Hobart Mills 5/8/26 0940 52.4   5.3 52   12 35.5   10.1 1.2   0.2 NE | 43 3.2   0.1 NE | 49 0.00 - 32.0   0.0 0.03 28.9   8.9 69.6   0.0 8.2   0.0
Prosser Dam 5/8/26 0950 50.7   6.6 50   14 32.5   12.6 1.7   0.0 N | 7 3.6   0.6 NNE | 30 0.00 23.2   1.0 50.3   0.2 0.00 28.7   8.1 51.7   6.5 6.1   1.0
West Incline Village 5/8/26 0940 52.6   0.4 39   34 28.3   16.4 2.2   0.9 S | 174 5.2   2.5 S | 188 0.00 33.0   0.8 46.4   0.9 0.00 42.5   2.2 53.0   0.4 5.5   2.2
Incline Village (Fairview Blvd) 5/8/26 0950 52.3   0.3 46   27 31.9   12.4 1.2   0.3 SW | 236 3.7   0.9 WSW | 252 0.00 26.3   0.4 52.4   1.5 0.00 44.4   1.3 52.8   0.0 3.7   0.9
Incline Village (Diamond Peak) 5/8/26 0950 52.1   0.6 38   31 27.0   14.5 1.4   1.9 W | 259 4.6   2.2 WSW | 246 0.00 9.5   0.3 47.4   1.4 0.00 45.1   0.9 52.3   0.6 5.1   1.7
Incline Village (Mill Creek) 5/8/26 0950 52.8   1.2 59   14 39.0   6.6 0.2   0.1 SW | 218 1.7   1.1 SW | 229 0.00 11.1   0.2 47.1   1.0 0.00 41.1   3.9 52.9   1.3 2.2   0.6
Incline Village (Lakeshore Blvd) 5/8/26 0950 48.8   2.5 78   10 42.3   5.8 2.0   0.3 SW | 223 3.2   0.4 SW | 219 0.00 32.1   2.1 51.1   0.1 0.00 34.0   6.1 49.1   2.8 4.7   0.2
Glenbrook 5/8/26 0940 49.0   2.8 77   6 42.3   4.7 3.2   0.4 WSW | 253 4.8   0.5 WSW | 254 0.00 44.3   0.0 45.9   0.7 0.00 37.5   4.1 49.4   3.0 5.3   0.9
Zephyr Cove 5/8/26 0940 53.8   3.5 53   1 37.0   3.8 0.8   0.2 NW | 313 2.6   0.4 NNW | 342 0.00 - 34.3   0.0 0.00 39.7   4.0 54.4   3.4 2.6   0.4
Kingsbury Grade 5/8/26 0950 55.6   0.5 38   20 30.6   10.9 2.6   0.5 WSW | 240 7.1   1.5 SW | 215 0.00 6.3   0.3 51.6   1.2 0.00 36.4   4.9 56.4   0.5 7.1   1.5
South Daggett Pass (Ridge) 5/8/26 0950 53.6   0.8 35   29 26.7   14.4 1.2   1.8 WNW | 286 6.2   6.1 W | 271 0.00 6.7   0.1 49.3   1.4 0.00 41.0   4.1 54.2   1.1 9.9   2.4
Palomino Valley 5/8/26 0950 66.9   2.4 28   8 32.7   8.7 1.5   2.3 ENE | 78 5.2   3.7 E | 101 0.00 7.0   0.0 65.6   1.1 0.00 41.6   4.2 67.8   2.3 7.2   1.7
East Cold Springs 5/8/26 0950 62.8   3.6 21   12 22.1   14.0 4.8   4.2 WNW | 282 10.3   5.7 NW | 304 0.00 1.8   0.1 57.3   0.6 0.00 45.0   4.7 63.3   3.6 17.5   1.0
Peavine 5/8/26 0950 59.2   3.5 30   8 27.7   8.7 4.7   0.2 NNE | 21 8.3   1.9 N | 8 0.00 - 53.4   0.0 0.00 45.3   6.9 60.1   3.4 9.4   2.2
West Verdi Peak 5/8/26 0950 59.7   0.6 20   24 18.5   19.6 3.2   0.5 WSW | 240 7.9   0.2 WNW | 298 0.00 20.6   1.1 53.6   0.7 0.00 43.7   3.9 60.2   0.4 14.9   4.7
West Verdi 5/8/26 0950 61.1   6.3 35   5 33.6   1.3 1.6   3.4 E | 82 4.5   8.7 ENE | 71 0.00 8.0   0.1 62.0   0.9 0.00 42.6   7.2 61.6   6.4 7.6   8.1
South Verdi 5/8/26 0950 59.4   4.5 33   2 30.3   5.1 1.9   14.9 WSW | 248 6.2   15.2 WSW | 248 0.00 16.2   0.4 57.9   0.7 0.00 40.6   9.3 60.2   3.9 27.1   3.6
Northwest Reno 5/8/26 0940 61.7   5.1 28   3 27.8   7.0 2.7   10.4 SE | 143 6.1   14.3 S | 191 0.00 23.9   0.1 63.5   0.9 0.00 48.8   5.8 63.1   4.2 28.0   7.6
North Lawton 5/8/26 0950 61.6   5.5 27   3 27.2   7.3 2.9   7.0 SW | 218 6.3   9.3 SSW | 205 0.00 - 39.1   0.0 0.00 47.2   5.5 62.0   5.5 17.3   0.9
West Reno (Mogul) 5/8/26 0940 61.5   6.6 28   0 28.5   6.0 0.6   8.9 E | 84 4.8   11.7 ENE | 63 0.00 37.3   0.6 62.6   1.3 0.00 47.4   3.5 62.0   6.7 15.2   1.4
Caughlin (Hunter Lake Trail) 9/16/25 0800 59.7   3.5 41   11 35.9   2.7 0.0   0.0 N | 0 0.0   0.0 ENE | 66 0.00 15.7   0.0 69.8   0.5 0.00 55.7   3.2 67.7   9.1 9.4   0.9
ArrowCreek 5/8/26 0940 61.6   1.8 28   22 28.0   16.3 2.2   0.3 NE | 37 4.5   0.6 NE | 38 0.00 - 32.0   0.0 0.00 46.0   5.6 62.0   1.6 12.3   1.4
Tracy 5/8/26 0950 67.4   2.6 23   13 28.2   13.4 8.8   0.8 SW | 228 14.7   2.5 WSW | 241 0.00 8.2   0.2 66.3   2.0 0.00 51.5   4.1 68.0   2.6 15.6   2.4
Virginia Highlands 5/8/26 0950 62.0   2.5 23   14 23.6   14.0 3.5   2.5 NE | 46 8.7   4.5 NE | 36 0.00 8.3   0.2 58.1   1.4 0.00 49.4   3.9 62.5   2.5 9.4   3.7
Virginia City 5/8/26 0950 60.4   3.0 23   12 21.9   13.1 5.2   0.6 WSW | 238 10.4   0.0 WSW | 237 0.00 8.3   0.0 56.5   1.7 0.00 53.3   1.1 61.0   3.1 18.8   1.4
Six Mile Canyon 9/9/25 0630 60.2   9.6 37   6 33.7   4.8 4.1   2.5 W | 277 6.1   2.9 WNW | 286 0.00 12.5   0.0 75.5   0.7 0.00 57.9   7.6 64.4   1.9 7.0   3.9
Mt Rose Highway 4/30/26 0510 40.8   4.7 47   13 22.3   1.3 2.3   0.2 WSW | 243 4.8   2.1 WSW | 246 0.00 24.1   0.3 43.0   0.8 0.00 40.5   4.7 43.0   5.3 7.7   0.4
Pleasant Valley 5/8/26 0950 63.9   2.2 29   14 30.9   11.9 4.2   1.5 ENE | 59 10.3   4.0 E | 87 0.00 2.8   0.1 63.1   1.8 0.00 40.9   6.9 64.6   2.0 10.4   2.7
New Washoe City 5/8/26 0940 63.5   1.7 24   16 26.5   14.0 1.5   1.3 W | 279 5.7   1.9 W | 259 0.00 4.4   0.0 61.8   1.6 0.00 44.2   3.1 64.1   1.2 10.1   0.8
Franktown Creek 5/8/26 0950 62.4   1.5 34   15 33.7   10.6 1.9   0.5 SE | 126 4.0   0.0 SE | 146 0.00 11.2   0.0 57.4   1.5 0.00 43.2   3.3 62.6   1.8 5.7   0.2
Musgrove Creek 5/8/26 0950 65.2   0.7 16   16 18.1   17.5 4.1   1.9 NNW | 339 11.7   5.1 NNW | 342 0.00 44.8   0.2 54.5   1.3 0.00 52.6   1.5 65.9   0.4 14.9   1.5
East Carson 11/23/24 0110 28.6   28.4 - - 4.7   11.0 SW | 220 14.7   10.1 SW | 219 0.02 - 50.9   0.1 0.02 -25.9   79.1 42.9   14.6 16.0   10.7
Kings Canyon 5/8/26 0950 63.1   0.0 29   16 30.2   11.1 4.3   0.3 ENE | 68 7.6   1.5 ENE | 72 0.00 14.8   0.3 57.3   0.3 0.00 43.4   4.2 63.9   0.5 9.2   0.1
Carson City (Voltaire Canyon) 5/8/26 0950 62.4   4.3 32   4 32.3   6.5 5.4   2.2 SSE | 147 10.4   2.5 SE | 146 0.00 2.8   0.0 62.4   1.7 0.00 52.0   2.1 63.1   4.6 19.0   0.9
Jacks Valley 5/8/26 0950 61.4   4.2 36   0 34.3   3.7 2.9   0.6 S | 188 7.9   0.5 SSW | 195 0.00 13.5   0.3 61.9   1.5 0.00 46.5   2.7 62.0   3.9 10.3   2.9
Genoa 5/8/26 0950 63.0   1.6 36   11 35.4   8.1 1.9   0.3 NNE | 23 5.2   2.0 NNE | 14 0.00 7.8   1.0 59.3   0.4 0.00 44.7   3.1 63.9   1.4 5.2   2.0
South Genoa (Walleys Hot Springs) 5/8/26 0950 62.3   1.8 35   13 34.2   10.0 3.0   0.8 E | 85 6.1   0.6 E | 86 0.00 14.9   1.0 63.8   1.9 0.00 40.3   4.0 62.7   2.0 9.8   0.1
SW Gardnerville (HWY 88) 5/8/26 0950 60.1   1.5 47   3 40.0   2.8 1.1   0.9 W | 274 3.6   0.5 NNW | 337 0.00 3.4   0.1 59.2   1.6 0.00 37.3   3.9 60.7   1.4 6.6   0.7
Sheridan 5/8/26 0950 60.9   2.1 43   7 38.2   5.7 3.2   1.5 NNE | 30 6.3   1.7 NE | 37 0.00 4.4   0.8 60.5   1.7 0.00 42.6   2.0 61.4   2.7 7.0   0.1
Ruhenstroth 5/8/26 0950 62.9   2.3 35   6 34.8   5.9 2.6   0.7 WNW | 283 6.1   1.0 NW | 322 0.00 12.5   0.0 59.1   1.6 0.00 43.0   1.9 63.1   2.7 8.2   1.1
Double Spring 5/8/26 0950 62.6   2.8 25   9 26.4   10.3 9.3   1.1 N | 4 13.4   0.6 NNW | 340 0.00 31.0   0.2 56.3   2.1 0.00 38.8   0.8 62.9   2.7 13.4   0.6
North Topaz Lake 5/8/26 0950 66.5   2.2 23   14 27.5   9.7 5.5   3.7 SE | 139 9.3   4.6 SSE | 164 0.00 9.4   0.1 64.0   2.7 0.00 56.6   2.1 67.4   2.4 16.4   9.4
Wild Oat Mountain 5/8/26 0950 61.4   0.4 24   18 24.4   14.0 2.6   0.4 SSE | 168 5.7   1.1 SW | 223 0.00 16.8   0.1 59.0   1.1 0.00 55.1   1.4 63.7   0.8 9.3   1.4
Smith Valley 5/8/26 0950 64.3   1.0 32   11 34.1   6.7 3.9   1.1 NNE | 22 7.1   1.4 NE | 51 0.00 5.8   0.1 62.2   1.8 0.00 45.6   3.8 65.5   1.2 8.2   1.4
Pine Grove Mountain 5/8/26 0950 54.4   0.5 17   14 10.2   14.8 4.6   2.4 W | 278 8.3   3.2 W | 281 0.00 21.4   1.0 49.5   1.3 0.00 47.4   4.0 55.0   0.9 19.4   7.8
Paradise Hill 5/8/26 0940 68.7   0.8 26   5 32.4   4.1 2.5   2.9 SW | 227 7.9   3.2 WSW | 253 0.00 8.0   0.0 61.4   0.9 0.00 42.0   3.7 69.2   0.9 12.5   2.1
Winnemucca 5/8/26 0950 67.4   1.1 24   6 29.4   6.1 7.2   0.6 SW | 224 11.7   0.2 SW | 234 0.00 5.9   0.0 61.1   1.4 0.00 51.8   1.3 67.9   1.1 12.9   1.0
NE Elko 5/8/26 0950 66.7   0.2 24   5 28.8   5.0 1.9   8.8 WNW | 289 8.6   6.3 W | 274 0.00 12.3   0.0 56.6   0.3 0.00 33.8   4.1 67.3   0.0 8.6   10.2
North Elko 5/8/26 0950 65.4   1.6 26   5 30.0   3.2 6.2   5.5 SSW | 206 12.8   4.9 SW | 218 0.00 28.4   0.1 57.2   2.1 0.00 47.0   2.1 66.1   1.5 12.8   4.9
South Elko 5/8/26 0950 61.5   0.4 28   6 28.3   5.0 6.7   3.4 WNW | 300 10.9   5.2 WNW | 290 0.00 18.3   0.0 56.6   1.5 0.00 52.8   2.5 124.5 15.9   1.5
Lamoille 1/28/26 1720 33.2   0.5 65   17 22.8   6.3 5.8   1.5 SSE | 166 7.7   1.9 SE | 139 0.00 12.2   0.0 33.4   0.1 0.02 23.5   2.0 36.5   5.9 25.6   17.4
Reid Gardner Sub 5/8/26 1000 78.5   5.4 15   4 27.2   1.6 1.3   1.0 S | 189 4.0   1.5 SSW | 210 0.00 24.8   0.8 72.8   1.5 0.00 54.2   1.9 78.7   5.3 6.8   0.5
Corn Creek 5/8/26 0950 84.0   7.5 16   1 32.7   4.3 13.2   12.0 W | 275 18.5   11.7 W | 273 0.00 3.9   0.0 76.8   4.5 0.00 71.2   9.1 84.6   7.3 18.8   9.9
Lucky Strike 5/8/26 0950 75.4   6.6 15   3 25.3   0.8 14.2   9.6 N | 0 20.4   11.6 N | 2 0.00 4.4   0.0 69.4   3.2 0.00 69.2   12.1 76.1   6.7 23.2   10.1
Lower Angel Peak 5/8/26 0950 70.9   7.7 19   7 26.2   1.4 10.5   6.9 NNW | 334 21.4   12.3 NW | 316 0.00 10.0   0.1 57.3   2.6 0.00 56.8   10.8 71.7   7.5 21.4   10.1
Angel Peak 5/8/26 0940 59.8   7.0 24   5 23.4   1.4 2.6   0.3 NNW | 339 10.8   1.2 W | 272 0.00 3.5   0.0 53.8   4.3 0.00 53.2   6.9 60.8   7.3 33.0   21.1
Upper Kyle Canyon 5/8/26 0950 65.0   5.7 17   12 18.7   8.3 2.4   3.1 NW | 325 7.9   2.7 NNE | 20 0.00 13.3   0.2 57.4   2.1 0.00 48.2   4.1 65.7   5.8 11.7   1.7
Mt Charleston 5/8/26 0940 66.4   5.9 17   13 19.6   8.9 4.4   1.5 NNW | 331 9.4   0.2 WNW | 292 0.00 18.2   0.0 50.3   1.3 0.00 51.9   5.7 66.9   5.7 12.2   3.0
Mid Kyle Canyon 5/8/26 0950 71.5   7.2 19   6 27.5   0.2 8.8   2.3 SE | 125 15.0   3.5 ESE | 112 0.00 7.0   0.0 60.6   3.0 0.00 56.4   7.5 72.4   7.7 20.5   3.1
Blue Diamond 5/8/26 0950 84.1   10.0 15   0 31.9   7.6 5.2   0.4 ESE | 121 10.2   1.1 ESE | 120 0.00 3.0   0.0 71.1   3.4 0.00 68.6   18.5 84.5   10.1 21.7   12.4
Artesian Sub 5/8/26 0950 88.4   7.1 14   0 32.7   5.9 1.8   0.9 NNE | 19 6.0   1.5 NE | 35 0.00 13.2   0.0 74.9   0.4 0.00 70.2   3.8 88.9   7.0 7.6   0.1
North Henderson 5/8/26 1000 83.2   2.3 19   6 37.3   10.2 1.4   0.5 ENE | 59 3.7   1.0 E | 88 0.00 9.7   0.7 80.7   1.2 0.00 72.9   7.6 84.1   2.8 5.3   3.7
Sandy Valley 5/8/26 0950 79.7   2.3 25   2 40.7   4.2 1.2   1.1 W | 271 4.5   0.5 W | 267 0.00 4.4   0.0 77.7   2.6 0.00 68.7   9.4 79.9   2.3 11.4   2.5
Searchlight 5/8/26 0950 85.1   9.7 16   1 34.6   6.5 2.0   8.4 NNE | 18 7.7   8.7 N | 6 0.00 4.7   0.0 74.9   3.5 0.00 68.5   12.3 85.6   9.7 14.8   3.4
Laughlin 5/8/26 0950 85.9 18 37.0 2.9 S | 180 5.6 S | 189 0.00 4.1 83.4 0.00 73.6 86.2 8.4
31Mission Hills 5/8/26 0950 85.8   8.6 14   0 31.6   7.5 6.0   2.1 N | 3 10.6   1.2 N | 0 0.00 3.6   0.0 78.3   4.5 0.00 74.2   6.2 86.1   8.5 11.6   2.2
32 Enterprise Sierra Cliffs 5/8/26 0950 84.7   9.0 14   2 30.8   10.8 5.6   0.7 SSE | 150 8.9   1.6 SSE | 155 0.00 2.2   0.1 73.9   5.1 0.00 73.0   6.1 84.9   8.9 23.7   9.4
Max     88.4 78 42.3 14.2 - 21.4 - 0.00 44.8 83.4 0.03 74.2 124.5 33.0
Avg     64.8 30 30.0 3.7 - 7.9 - 0.00 13.3 58.9 - - - -
Min     48.8 14 10.2 0.2 - 1.7 - 0.00 1.8 32.0 0.00 28.7 49.1 2.2

Latest Observation

67 Stations

Daily Data
as of 5/8/26 9:50 AM PDT
Station Date Daily Max Temp (°F) Daily Min Temp (°F) Daily Max RH (%) Daily Min RH (%) Wind Spd (mph) Wind Dir (°) Daily Max Wind (mph) Max Wind Dir (°) Time of Max Wind Daily Rain (In) Weekly Precip (In) Season Precip (In) Soil Moist (%) Fuel Temp (°F) Fuel Moisture (%) MinBV Day (V)
Hobart Mills 12/23/25 51.8   11.3 33.9   2.1 88   12 42   34 2.1   1.7 SW | 224 18.4   8.6 WSW | 240 2307 0.65 6.21 15.12 - 37.6   2.8 42   19 8.0   0.7
Prosser Dam 5/7/26 70.2   0.6 36.9   0.8 98   0 27   1 3.8   0.9 WSW | 240 21.7   1.6 WSW | 258 1537 0.00 0.83 8.47 23.9   1.0 56.9   1.0 11   6 12.6   0.0
West Incline Village 5/7/26 65.2   2.2 44.8   3.1 86   8 27   1 3.1   0.9 NNE | 31 19.0   6.1 S | 177 1358 0.00 1.36 7.94 33.7   0.8 58.0   1.4 10   8 12.5   0.0
Incline Village (Fairview Blvd) 5/7/26 64.9   1.2 45.7   4.5 91   6 30   1 1.6   0.6 SSW | 211 18.9   8.7 WSW | 253 1613 0.00 1.30 7.48 26.7   0.6 58.8   2.1 11   7 12.6   0.1
Incline Village (Diamond Peak) 5/7/26 62.6   2.2 46.0   3.3 86   1 32   1 0.0   0.0 N | 0 15.8   5.3 SE | 141 1157 0.00 0.10 0.51 9.6   0.2 -11.4   0.1 - 12.4   0.1
Incline Village (Mill Creek) 5/7/26 64.9   0.5 45.0   4.6 93   1 31   5 1.4   0.7 WSW | 240 16.4   7.8 SSW | 205 1448 0.00 1.27 7.18 11.3   0.2 - - 12.4   0.1
Incline Village (Lakeshore Blvd) 5/7/26 62.0   0.2 40.2   3.8 98   1 52   10 2.8   1.6 SSW | 194 12.2   6.1 SSW | 206 1657 0.00 1.15 7.20 33.5   0.7 61.7   2.6 17   2 12.4   0.0
Glenbrook 5/7/26 64.2   0.9 41.6   3.2 96   1 43   13 1.8   0.3 W | 265 6.6   1.2 WNW | 283 1531 0.00 1.09 5.88 44.3   0.0 54.6   2.0 15   6 12.6   0.0
Zephyr Cove 5/7/26 66.7   1.6 43.7   2.1 93   4 29   2 0.0   0.0 N | 0 7.0   2.0 S | 182 1200 0.00 0.02 0.68 - 43.6   2.9 - 12.6   0.2
Kingsbury Grade 5/7/26 68.3   2.5 41.3   3.2 94   2 28   1 1.2   0.0 WSW | 252 10.9   1.9 SW | 230 1518 0.00 0.95 5.82 7.0   0.2 57.0   3.3 10   5 12.5   0.0
South Daggett Pass (Ridge) 5/7/26 61.8   1.5 44.8   3.4 84   8 31   5 3.2   1.4 WNW | 283 22.5   11.6 W | 259 1526 0.00 0.73 4.05 6.8   0.1 54.8   1.0 11   6 12.5   0.0
Palomino Valley 5/7/26 80.3   1.9 45.8   0.0 85   2 14   1 6.4   3.4 W | 266 28.7   8.0 WSW | 252 1138 0.00 0.27 1.41 7.0   0.1 66.4   1.0 2   0 12.6   0.0
East Cold Springs 5/7/26 75.0   1.9 49.8   2.4 73   8 20   1 10.0   2.7 W | 274 24.8   4.5 W | 274 1519 0.00 0.68 2.09 1.8   0.1 65.8   0.9 10   3 12.7   0.0
Peavine 5/7/26 71.7   2.1 52.2   2.7 61   8 20   1 6.1   1.4 SW | 231 25.3   6.8 SSW | 198 2054 0.00 0.67 2.14 - - - 12.5   0.0
West Verdi Peak 5/7/26 70.1   0.2 47.6   4.6 78   10 22   3 3.2   0.6 WSW | 256 23.7   7.6 WNW | 286 1448 0.00 0.78 6.39 21.4   0.8 63.7   0.6 9   4 12.6   0.0
West Verdi 5/7/26 75.0   0.7 49.8   4.4 78   6 18   1 4.8   1.6 WSW | 245 25.2   8.9 W | 264 1437 0.00 0.65 5.92 8.1   0.1 64.6   0.7 11   3 12.6   0.0
South Verdi 5/7/26 72.0   0.4 50.0   3.4 75   2 23   2 18.4   9.8 WSW | 248 34.9   12.4 WSW | 248 1537 0.00 0.57 4.81 16.7   0.2 65.2   1.4 8   2 12.7   0.0
Northwest Reno 5/7/26 75.3   0.2 54.6   1.4 62   6 17   1 15.5   6.7 W | 268 37.6   10.4 W | 271 2212 0.00 0.33 1.33 23.9   0.3 -17.7   0.0 - 12.6   0.0
North Lawton 5/7/26 75.7   1.4 52.7   4.0 67   5 18   0 10.5   4.2 WSW | 239 29.3   2.5 WSW | 252 1515 0.00 0.44 2.14 - - - 12.6   0.0
West Reno (Mogul) 5/7/26 75.4   1.2 50.9   1.4 73   1 12   4 8.0   3.0 WSW | 248 30.3   7.9 SW | 215 2151 0.00 0.34 4.24 37.6   0.5 69.9   1.5 3   2 12.5   0.0
Caughlin (Hunter Lake Trail) 9/15/25 78.6   1.3 52.5   3.7 58   7 23   2 4.2   2.5 S | 173 13.0   20.5 NNE | 31 1309 0.00 0.32 8.05 15.7   0.1 67.4   0.5 7   1 12.7   0.0
ArrowCreek 5/7/26 76.2   2.2 51.6   2.5 68   5 17   1 5.6   0.1 WSW | 246 23.5   4.7 SW | 216 1553 0.00 0.69 5.25 - - - 12.4   0.0
Tracy 5/7/26 82.7   3.6 55.6   1.6 63   5 14   2 9.1   3.5 W | 262 34.6   16.3 W | 260 1614 0.00 0.37 1.23 8.0   0.1 72.1   2.3 8   3 12.7   0.0
Virginia Highlands 5/7/26 72.0   1.9 53.3   2.2 62   4 21   4 4.3   0.4 W | 261 19.0   0.4 SW | 215 1706 0.00 0.44 2.15 8.4   0.3 64.8   1.4 9   4 12.6   0.0
Virginia City 5/7/26 70.0   0.4 54.3   4.8 59   9 20   4 6.2   2.0 SW | 219 27.6   3.4 SSW | 194 1541 0.00 0.41 1.86 8.4   0.1 62.7   0.9 7   4 12.7   0.0
Six Mile Canyon 9/8/25 98.8   16.5 50.2   7.6 44   3 11   1 7.2   0.3 WSW | 252 27.0   4.6 SSE | 159 1325 0.00 0.00 0.89 12.6   0.1 69.7   3.0 4   0 12.4   0.2
Mt Rose Highway 4/29/26 56.6   7.9 35.6   4.1 63   16 31   6 2.2   0.0 NW | 305 10.8   4.2 NE | 35 1152 0.00 0.08 4.93 24.3   0.3 47.6   8.0 3   0 12.4   0.0
Pleasant Valley 5/7/26 75.3   0.4 47.8   2.6 78   5 23   5 5.8   2.4 SSW | 210 25.6   7.8 SSW | 200 1435 0.00 0.49 2.52 2.8   0.0 68.1   2.1 9   4 12.6   0.0
New Washoe City 5/7/26 74.2   0.8 47.3   2.0 77   4 23   6 6.7   2.1 SW | 215 27.3   6.3 WSW | 243 1349 0.00 0.45 1.76 4.5   0.0 65.4   2.2 9   4 12.6   0.1
Franktown Creek 5/7/26 73.6   1.2 46.5   2.5 84   0 15   3 2.9   1.3 SW | 217 27.0   11.8 S | 183 1441 0.00 0.64 5.97 11.2   0.0 61.5   2.9 10   4 12.6   0.0
Musgrove Creek 5/7/26 71.2   0.0 54.1   4.7 65   5 22   3 2.9   0.5 SSW | 204 20.5   8.0 SE | 133 1547 0.00 0.97 8.00 45.0   0.1 64.6   2.4 13   5 12.6   0.0
East Carson 11/22/24 63.8   0.3 41.7   4.6 85   21 21   9 14.9   6.0 SW | 224 46.6   12.7 S | 171 1835 0.05 0.05 4.48 2.5   0.0 53.9   0.3 9   0 12.6   0.0
Kings Canyon 5/7/26 73.0   0.5 47.1   3.9 74   7 23   6 4.1   0.1 S | 188 24.1   2.4 SSW | 211 2111 0.00 0.66 4.52 15.0   0.1 66.8   1.5 6   3 12.6   0.0
Carson City (Voltaire Canyon) 5/7/26 74.2   0.4 54.2   4.4 63   10 21   5 10.2   2.4 SW | 220 27.0   5.2 SW | 229 2321 0.01 1.24 1.33 2.8   0.0 -10.8 - 12.7   0.0
Jacks Valley 5/7/26 74.0   0.6 49.2   4.7 63   19 21   5 6.2   2.0 WSW | 244 31.4   10.8 S | 190 1433 0.00 0.52 2.50 13.8   0.0 64.1   0.4 9   5 12.7   0.0
Genoa 5/7/26 76.7   0.5 47.8   2.0 79   5 22   6 1.9   0.9 SW | 224 22.4   10.3 SE | 138 2150 0.00 0.48 5.22 8.7   1.2 65.3   2.5 11   7 12.3   0.0
South Genoa (Walleys Hot Springs) 5/7/26 77.7   1.2 44.3   1.5 90   4 20   8 4.6   1.2 NW | 318 34.5   13.9 WSW | 251 2145 0.00 0.40 3.35 14.0   0.1 67.2   1.5 8   4 12.5   0.0
SW Gardnerville (HWY 88) 5/7/26 75.9   1.4 41.2   0.4 88   3 17   1 6.0   2.3 WNW | 290 27.4   13.8 W | 271 1556 0.00 0.04 0.60 3.5   0.0 61.9   0.2 10   3 12.5   0.0
Sheridan 5/7/26 77.7   2.9 44.6   0.7 77   6 13   3 5.5   2.5 WSW | 256 29.6   17.8 W | 261 1455 0.00 0.40 3.46 5.1   0.8 66.4   0.6 9   4 12.6   0.0
Ruhenstroth 5/7/26 78.4   3.1 44.9   2.4 73   13 15   2 4.2   1.2 WSW | 252 23.1   6.1 S | 183 1627 0.00 0.64 2.06 12.6   0.0 64.5   3.0 9   5 12.7   0.0
Double Spring 5/7/26 72.1   2.9 37.9   0.5 87   4 22   1 5.2   0.6 NW | 320 27.0   7.0 NW | 318 1224 0.00 0.90 2.44 31.0   0.4 60.2   2.4 11   6 12.6   0.0
North Topaz Lake 5/7/26 75.1   4.3 54.5   7.2 49   22 19   2 5.4   2.1 W | 270 23.1   7.2 WSW | 242 1233 0.00 0.59 1.68 9.5   0.2 67.2   4.9 8   7 12.6   0.1
Wild Oat Mountain 5/7/26 73.2   3.9 53.7   6.7 49   21 20   4 6.1   2.9 WNW | 293 26.3   10.8 W | 264 1735 0.00 0.52 1.77 16.8   0.2 65.2   3.3 8   5 12.6   0.1
Smith Valley 5/7/26 80.4   5.9 49.3   5.4 70   15 17   7 4.6   0.9 WNW | 290 24.2   8.8 W | 264 1724 0.00 0.51 1.37 5.8   0.0 66.8   2.5 10   9 12.6   0.0
Pine Grove Mountain 5/7/26 64.8   5.3 49.0   5.0 54   10 23   6 9.2   4.1 WSW | 247 29.2   12.2 WNW | 287 1729 0.00 0.57 0.91 22.3   1.1 60.2   6.8 8   10 12.7   0.0
Paradise Hill 5/7/26 81.7   5.2 45.6   0.7 46   13 15   2 8.4   4.7 WNW | 299 33.4   14.4 W | 272 1426 0.00 0.00 2.33 8.0   0.0 69.9   1.9 6   0 12.6   0.0
Winnemucca 5/7/26 81.2   5.1 53.1   9.2 38   36 14   1 9.0   4.4 SW | 226 34.6   18.8 WSW | 252 1313 0.00 0.00 2.90 6.0   0.0 74.8   5.2 2   1 12.6   0.0
NE Elko 5/7/26 76.4   4.1 37.9   5.2 61   33 18   0 7.0   3.0 W | 277 31.6   8.3 WSW | 251 1244 0.00 0.04 2.33 12.4   0.0 61.8   4.3 6   4 12.6   0.0
North Elko 5/7/26 74.7   5.5 49.1   9.7 51   39 20   2 8.3   2.5 W | 270 34.0   9.4 W | 266 1334 0.00 0.44 2.48 28.4   0.1 64.7   5.7 7   5 12.6   0.1
South Elko 5/7/26 - 55.3   10.5 88   12 19   8 9.1   4.4 W | 270 31.4   10.3 WNW | 296 1459 0.00 0.04 2.71 18.5   0.1 64.9   6.6 6   13 12.6   0.1
Lamoille 1/27/26 42.4   2.7 21.5   6.4 60   0 25   6 2.6   0.5 SE | 125 8.2   4.1 SE | 139 0137 0.00 0.00 0.67 12.3   0.2 26.9   1.3 11   0 8.5   2.8
Reid Gardner Sub 5/7/26 93.6 52.3 45 10 2.3 SSW | 206 11.4 SSE | 165 1740 0.00 0.00 0.56 25.3 79.9 1 12.6
Corn Creek 5/7/26 89.7   6.7 62.1   3.1 29   7 10   6 4.6   4.0 WSW | 237 20.1   3.3 NW | 319 1525 0.00 0.00 0.63 3.9   0.0 80.4   6.0 2   0 12.6   0.0
Lucky Strike 5/7/26 77.5   6.4 57.1   4.2 32   11 10   6 5.3   4.8 WSW | 246 19.8   9.8 NNE | 14 1151 0.00 0.00 1.21 4.5   0.1 72.7   6.2 3   1 12.6   0.0
Lower Angel Peak 5/7/26 72.3   7.0 46.0   3.9 49   12 14   7 4.8   0.6 SW | 218 18.8   6.5 NNW | 328 1232 0.00 0.00 1.93 10.1   0.1 63.7   5.9 3   1 12.6   0.0
Angel Peak 5/7/26 63.4   7.2 46.4   9.8 46   26 17   8 5.7   0.5 NW | 312 27.1   4.1 WNW | 297 0005 0.00 0.02 84.72 3.5   0.1 59.1   8.2 6   1 12.5   0.1
Upper Kyle Canyon 5/7/26 66.5   6.8 44.0   4.8 44   19 16   2 4.5   0.2 NNW | 339 17.0   6.0 WNW | 300 1745 0.00 0.00 5.08 13.5   0.1 62.5   3.3 6   1 12.7   0.0
Mt Charleston 5/7/26 66.9   6.3 46.2   7.6 44   21 19   2 2.6   0.2 WSW | 255 13.4   6.2 ESE | 102 1059 0.00 0.00 5.28 18.2   0.0 63.6   4.7 28   1 12.6   0.0
Mid Kyle Canyon 5/7/26 72.6   6.3 48.8   7.3 40   21 17   2 8.0   0.4 NNW | 344 20.2   5.1 ESE | 121 1525 0.00 0.00 2.08 7.0   0.0 71.2   8.9 6   1 12.8   0.1
Blue Diamond 5/7/26 87.0   7.8 50.1   5.8 42   2 11   9 3.9   0.9 WNW | 302 18.5   0.2 W | 278 1947 0.00 0.00 0.85 3.1   0.1 75.9 4 12.6   0.2
Artesian Sub 5/7/26 95.5   7.7 66.4   2.8 27   11 10   7 1.6   0.4 E | 79 10.7   2.0 SSE | 151 1741 0.00 0.00 0.35 13.2   0.0 - 0   0 12.7   0.0
North Henderson 5/7/26 94.5   7.1 65.3   2.6 37   1 10   7 2.5   0.9 NE | 55 12.3   3.8 NW | 324 1506 0.00 0.00 0.52 8.8   0.0 85.0   5.2 5   0 12.7   0.0
Sandy Valley 5/7/26 90.0   8.0 59.3   5.8 38   16 14   8 4.9   1.0 NW | 308 19.1   2.5 WSW | 244 1506 0.00 0.00 0.62 4.5   0.1 86.5   13.5 3   1 12.7   0.0
Searchlight 5/7/26 86.9   8.7 56.2   8.4 36   23 12   7 5.6   1.7 N | 9 22.6   0.7 NNE | 28 1340 0.00 0.00 0.51 4.7   0.1 78.2   6.3 1   1 12.6   0.1
Laughlin 5/7/26 99.7   7.4 68.9   6.5 34   12 8   5 7.7   4.1 N | 1 23.0   4.2 N | 4 1304 0.00 0.00 0.29 4.2   0.1 94.6   15.1 3   1 12.8   0.0
31Mission Hills 5/7/26 91.2   7.6 67.9   8.2 22   16 11   5 4.5   1.5 NNW | 344 17.9   4.0 N | 5 1550 0.00 - 0.00 3.8   0.0 84.5   6.7 6   1 13.2   0.1
32 Enterprise Sierra Cliffs 5/7/26 88.8   7.1 66.9   6.0 26   9 10   7 6.5   0.7 SW | 236 18.5   3.7 WSW | 253 0040 0.00 - 0.00 2.3   0.0 81.7   7.2 6   0 13.1   0.1
Max   99.7 68.9 98 52 18.4 - 37.6 - - 0.01 - 84.72 45.0 94.6 28 13.2
Avg   - - - - 5.5 - - - - - - - 13.4 62.7 8 -
Min   61.8 36.9 22 8 0.0 - 6.6 - - 0.00 - 0.00 1.8 -17.7 0 12.3

Fosberg 6Hr Max

Map

Hourly Data

Fosberg 6Hr Max

Map

Hourly Data